Terminal Aerodrome Forecast
Issued by NWS

Home | Current Version | Previous Version | Text Only | Print | Product List | Glossary On
Versions: 1 2 3 4 5 6 7 8 9 10 11 12
000
FTUS46 KLOX 032345
TAFBUR
TAF
KBUR 032345Z 0400/0424 18007KT P6SM SCT200
     FM040400 VRB03KT 5SM HZ SKC
     FM040900 VRB03KT 5SM BR OVC007
     FM041600 14005KT 6SM BR BKN012
     FM041800 18010KT P6SM SKC=

USA.gov is the U.S. government's official web portal to all federal, state and local government web resources and services.